Startpagina
METAR-TAF:

METAR-TAF

Vliegvelden :

Siteki, Swaziland

breedte: 26-28-20S, lengte: 31-56-34E, hoogte: 677 m

Actueel weer

Dit bericht is 1 uur en het 18 minuten geleden gemaakt, om 00:00 UTC
Weinig wind
Temperatuur 13°C
Vochtigheid 28%
Druk 1027 hPa

METAR: FDST 170000Z AUTO 00000KT //// // ////// 13/M05 Q1027

Tijdstip: 03:18 (01:18 UTC)


TAF: ontbreekt

Waarnemingen en weersverwachtingen van meer dan 4000 vliegvelden (METAR en TAF).

De beschikbare stations zijn de gele en rode punten op de kaart.

Ga met uw muis naar het station om de naam te zien.

Klik dan om waarnemingen en weersverwachtingen te zien.

kaart wijzigen: klik op de groene knoppen met een zwart kruis om in te zoomen, op de groene knop met een streepje om uit te zoomen of op de groene pijlen voor aangrenzende kaarten.


METAR-TAF: